createdAt,value
2023-05-20T00:00:32.230Z,10.98
2023-05-20T00:03:46.776Z,10.98
2023-05-20T00:06:59.488Z,10.98
2023-05-20T00:10:13.190Z,10.98
2023-05-20T00:13:25.600Z,11.01
2023-05-20T00:16:38.137Z,11.00
2023-05-20T00:19:50.729Z,10.98
2023-05-20T00:23:03.166Z,10.96
2023-05-20T00:29:15.591Z,10.89
2023-05-20T00:32:27.853Z,10.89
2023-05-20T00:35:40.759Z,10.91
2023-05-20T00:38:52.983Z,10.92
2023-05-20T00:45:06.236Z,10.93
2023-05-20T00:48:18.916Z,10.93
2023-05-20T00:51:31.701Z,10.95
2023-05-20T00:54:44.935Z,10.97
2023-05-20T00:57:58.325Z,10.97
2023-05-20T01:01:11.083Z,10.96
2023-05-20T01:04:23.908Z,10.93
2023-05-20T01:07:36.690Z,10.90
2023-05-20T01:23:02.187Z,10.87
2023-05-20T01:26:17.353Z,10.85
2023-05-20T01:29:33.105Z,10.86
2023-05-20T01:32:50.665Z,10.85
2023-05-20T01:36:04.049Z,10.84
2023-05-20T01:39:17.562Z,10.87
2023-05-20T01:42:32.969Z,10.85
2023-05-20T01:45:48.033Z,10.81
2023-05-20T01:49:00.988Z,10.83
2023-05-20T01:52:14.328Z,10.82
2023-05-20T01:55:27.454Z,10.81
2023-05-20T01:58:40.522Z,10.78
2023-05-20T02:01:53.524Z,10.81
2023-05-20T02:05:05.921Z,10.83
2023-05-20T02:11:18.606Z,10.81
2023-05-20T02:14:31.123Z,10.79
2023-05-20T02:17:44.295Z,10.80
2023-05-20T02:20:56.940Z,10.83
2023-05-20T02:24:09.734Z,10.84
2023-05-20T02:27:22.238Z,10.84
2023-05-20T02:30:35.130Z,10.83
2023-05-20T02:33:47.880Z,10.85
2023-05-20T02:43:00.481Z,10.82
2023-05-20T02:46:13.358Z,10.82
2023-05-20T02:49:25.931Z,10.82
2023-05-20T02:52:40.155Z,10.85
2023-05-20T02:55:54.761Z,10.82
2023-05-20T02:59:08.645Z,10.83
2023-05-20T03:02:21.456Z,10.87
2023-05-20T03:05:36.161Z,10.79
2023-05-20T03:08:48.548Z,10.81
2023-05-20T03:12:00.892Z,10.84
2023-05-20T03:15:15.575Z,10.83
2023-05-20T03:18:28.046Z,10.84
2023-05-20T03:21:40.598Z,10.86
2023-05-20T03:24:53.672Z,10.92
2023-05-20T03:28:06.865Z,10.89
2023-05-20T03:31:21.570Z,10.82
2023-05-20T03:34:35.593Z,10.91
2023-05-20T03:37:48.317Z,10.92
2023-05-20T03:41:01.057Z,10.91
2023-05-20T03:44:13.823Z,10.91
2023-05-20T03:47:26.505Z,10.96
2023-05-20T03:50:39.304Z,10.95
2023-05-20T03:53:51.969Z,11.00
2023-05-20T03:57:04.946Z,11.00
2023-05-20T04:00:20.577Z,11.00
2023-05-20T04:03:32.943Z,11.00
2023-05-20T04:06:45.640Z,11.00
2023-05-20T04:09:59.612Z,10.99
2023-05-20T04:13:12.163Z,11.05
2023-05-20T04:16:25.360Z,11.07
2023-05-20T04:19:38.389Z,11.11
2023-05-20T04:25:51.142Z,11.10
2023-05-20T04:29:04.468Z,11.13
2023-05-20T04:32:18.923Z,11.11
2023-05-20T04:35:35.526Z,11.14
2023-05-20T04:47:49.625Z,11.21
2023-05-20T04:51:02.401Z,11.20
2023-05-20T04:54:18.051Z,11.20
2023-05-20T04:57:31.477Z,11.25
2023-05-20T05:00:44.158Z,11.22
2023-05-20T05:03:56.712Z,11.21
2023-05-20T05:07:09.909Z,11.27
2023-05-20T05:10:25.440Z,11.30
2023-05-20T05:13:37.866Z,11.30
2023-05-20T05:16:52.077Z,11.34
2023-05-20T05:20:05.855Z,11.30
2023-05-20T05:23:18.363Z,11.33
2023-05-20T05:26:31.179Z,11.30
2023-05-20T05:29:43.693Z,11.37
2023-05-20T05:32:56.570Z,11.39
2023-05-20T05:36:10.143Z,11.46
2023-05-20T05:39:22.665Z,11.52
2023-05-20T05:42:35.307Z,11.54
2023-05-20T05:45:48.307Z,11.59
2023-05-20T05:49:00.822Z,11.68
2023-05-20T05:55:16.483Z,11.73
2023-05-20T05:58:29.422Z,11.73
2023-05-20T06:01:41.951Z,11.78
2023-05-20T06:04:55.347Z,11.85
2023-05-20T06:08:07.658Z,11.91
2023-05-20T06:11:21.960Z,11.95
2023-05-20T06:14:34.484Z,11.96
2023-05-20T06:17:47.404Z,12.03
2023-05-20T06:21:05.301Z,12.07
2023-05-20T06:24:17.977Z,12.07
2023-05-20T06:27:30.632Z,12.06
2023-05-20T06:30:43.481Z,12.08
2023-05-20T06:33:56.226Z,12.11
2023-05-20T06:37:09.140Z,12.16
2023-05-20T06:40:22.200Z,12.17
2023-05-20T06:43:35.663Z,12.26
2023-05-20T06:46:53.081Z,12.33
2023-05-20T06:50:05.874Z,12.43
2023-05-20T06:53:18.405Z,12.48
2023-05-20T06:56:30.964Z,12.57
2023-05-20T06:59:44.819Z,12.67
2023-05-20T07:02:58.796Z,12.77
2023-05-20T07:06:12.246Z,12.83
2023-05-20T07:09:24.709Z,12.83
2023-05-20T07:12:38.109Z,12.89
2023-05-20T07:15:54.115Z,13.00
2023-05-20T07:19:07.097Z,13.08
2023-05-20T07:22:20.270Z,13.10
2023-05-20T07:25:41.063Z,13.19
2023-05-20T07:28:54.029Z,13.21
2023-05-20T07:32:06.864Z,13.35
2023-05-20T07:35:20.192Z,13.54
2023-05-20T07:38:32.615Z,13.50
2023-05-20T07:41:47.278Z,13.62
2023-05-20T07:44:59.757Z,13.62
2023-05-20T07:48:13.355Z,13.68
2023-05-20T07:51:26.746Z,13.80
2023-05-20T07:54:41.131Z,13.87
2023-05-20T07:57:53.936Z,13.92
2023-05-20T08:01:07.920Z,13.72
2023-05-20T08:04:20.981Z,13.91
2023-05-20T08:07:33.781Z,13.90
2023-05-20T08:10:46.400Z,14.02
2023-05-20T08:13:59.059Z,14.05
2023-05-20T08:17:13.265Z,14.14
2023-05-20T08:20:26.650Z,14.26
2023-05-20T08:23:40.573Z,14.24
2023-05-20T08:26:53.427Z,14.26
2023-05-20T08:30:08.548Z,14.32
2023-05-20T08:33:22.112Z,14.30
2023-05-20T08:36:35.030Z,14.43
2023-05-20T08:39:49.494Z,14.41
2023-05-20T08:43:02.196Z,14.51
2023-05-20T08:46:18.429Z,14.54
2023-05-20T08:49:31.796Z,14.51
2023-05-20T08:52:47.419Z,14.55
2023-05-20T08:56:04.591Z,14.63
2023-05-20T08:59:17.454Z,14.66
2023-05-20T09:02:29.893Z,14.67
2023-05-20T09:05:42.609Z,14.67
2023-05-20T09:08:57.102Z,14.74
2023-05-20T09:12:11.513Z,14.72
2023-05-20T09:15:24.080Z,14.88
2023-05-20T09:18:37.402Z,14.95
2023-05-20T09:21:52.773Z,14.97
2023-05-20T09:25:05.658Z,15.06
2023-05-20T09:28:18.247Z,15.12
2023-05-20T09:31:35.901Z,15.25
2023-05-20T09:34:48.580Z,15.32
2023-05-20T09:38:03.686Z,15.31
2023-05-20T09:41:18.298Z,15.37
2023-05-20T09:44:31.830Z,15.62
2023-05-20T09:47:45.274Z,15.78
2023-05-20T09:50:58.920Z,15.88
2023-05-20T09:54:12.408Z,15.88
2023-05-20T09:57:25.298Z,15.95
2023-05-20T10:00:38.460Z,16.10
2023-05-20T10:03:51.817Z,16.06
2023-05-20T10:07:41.046Z,16.05
2023-05-20T10:10:53.164Z,16.08
2023-05-20T10:14:28.212Z,16.20
2023-05-20T10:17:46.721Z,16.25
2023-05-20T10:20:59.370Z,16.18
2023-05-20T10:24:18.483Z,16.31
2023-05-20T10:27:30.825Z,16.54
2023-05-20T10:30:44.436Z,16.53
2023-05-20T10:33:59.231Z,16.79
2023-05-20T10:37:12.088Z,16.84
2023-05-20T10:40:27.622Z,16.96
2023-05-20T10:43:40.106Z,17.11
2023-05-20T10:50:07.878Z,17.38
2023-05-20T10:56:38.435Z,17.41
2023-05-20T10:59:51.582Z,17.46
2023-05-20T11:03:04.852Z,17.66
2023-05-20T11:06:23.292Z,17.79
2023-05-20T11:09:35.711Z,17.78
2023-05-20T11:12:48.445Z,17.70
2023-05-20T11:16:01.773Z,17.80
2023-05-20T11:19:17.490Z,17.87
2023-05-20T11:22:30.271Z,18.06
2023-05-20T11:25:42.694Z,18.29
2023-05-20T11:28:55.570Z,18.78
2023-05-20T11:32:08.522Z,19.11
2023-05-20T11:35:30.951Z,19.22
2023-05-20T11:38:45.188Z,19.16
2023-05-20T11:41:58.420Z,19.60
2023-05-20T11:45:12.800Z,20.32
2023-05-20T11:48:25.835Z,20.79
2023-05-20T11:51:38.918Z,20.77
2023-05-20T11:54:51.595Z,21.20
2023-05-20T11:58:04.833Z,21.18
2023-05-20T12:01:22.457Z,21.50
2023-05-20T12:04:32.586Z,21.32
2023-05-20T12:07:45.131Z,21.58
2023-05-20T12:10:58.059Z,21.78
2023-05-20T12:14:11.085Z,21.88
2023-05-20T12:17:23.659Z,21.85
2023-05-20T12:20:37.870Z,21.90
2023-05-20T12:23:50.716Z,22.26
2023-05-20T12:27:04.325Z,22.29
2023-05-20T12:30:19.886Z,22.47
2023-05-20T12:33:32.328Z,22.54
2023-05-20T12:36:44.811Z,22.76
2023-05-20T12:39:57.431Z,22.79
2023-05-20T12:43:11.588Z,22.95
2023-05-20T12:46:24.954Z,23.09
2023-05-20T12:49:37.723Z,23.05
2023-05-20T12:52:50.276Z,23.20
2023-05-20T12:56:03.068Z,23.29
2023-05-20T12:59:18.636Z,23.52
2023-05-20T13:02:31.284Z,23.35
2023-05-20T13:05:44.082Z,23.54
2023-05-20T13:08:56.820Z,23.55
2023-05-20T13:12:09.795Z,23.56
2023-05-20T13:15:22.452Z,23.68
2023-05-20T13:18:34.930Z,23.82
2023-05-20T13:21:47.366Z,23.81
2023-05-20T13:24:59.834Z,23.92
2023-05-20T13:28:15.385Z,23.76
2023-05-20T13:31:28.112Z,23.76
2023-05-20T13:34:40.883Z,23.83
2023-05-20T13:37:53.429Z,23.94
2023-05-20T13:41:06.076Z,23.95
2023-05-20T13:44:18.807Z,23.86
2023-05-20T13:47:31.379Z,23.84
2023-05-20T13:50:43.888Z,23.87
2023-05-20T13:53:56.361Z,23.76
2023-05-20T13:57:09.488Z,23.75
2023-05-20T14:00:23.485Z,23.75
2023-05-20T14:03:37.608Z,23.55
2023-05-20T14:06:50.305Z,23.48
2023-05-20T14:10:02.865Z,23.42
2023-05-20T14:13:15.483Z,23.41
2023-05-20T14:16:28.483Z,23.45
2023-05-20T14:19:41.325Z,23.40
2023-05-20T14:22:53.844Z,23.34
2023-05-20T14:26:06.572Z,23.31
2023-05-20T14:29:19.027Z,23.26
2023-05-20T14:32:32.599Z,23.28
2023-05-20T14:35:45.298Z,23.33
2023-05-20T14:38:57.988Z,23.26
2023-05-20T14:42:11.337Z,23.23
2023-05-20T14:45:24.219Z,23.20
2023-05-20T14:48:36.823Z,23.19
2023-05-20T14:51:49.291Z,23.21
2023-05-20T14:55:01.899Z,23.13
2023-05-20T14:58:15.545Z,23.05
2023-05-20T15:01:28.060Z,23.07
2023-05-20T15:04:41.061Z,23.04
2023-05-20T15:07:53.560Z,23.11
2023-05-20T15:11:06.123Z,22.96
2023-05-20T15:14:18.775Z,22.96
2023-05-20T15:17:31.461Z,22.88
2023-05-20T15:20:44.669Z,22.92
2023-05-20T15:23:57.657Z,22.92
2023-05-20T15:27:10.795Z,22.87
2023-05-20T15:30:23.917Z,22.77
2023-05-20T15:33:36.757Z,22.71
2023-05-20T15:36:49.490Z,22.72
2023-05-20T15:40:02.160Z,22.65
2023-05-20T15:43:15.703Z,22.62
2023-05-20T15:46:28.373Z,22.58
2023-05-20T15:49:40.954Z,22.51
2023-05-20T15:52:53.581Z,22.52
2023-05-20T15:56:06.617Z,22.58
2023-05-20T15:59:19.175Z,22.55
2023-05-20T16:02:36.020Z,22.46
2023-05-20T16:05:48.036Z,22.41
2023-05-20T16:09:00.940Z,22.31
2023-05-20T16:12:16.290Z,22.25
2023-05-20T16:15:30.794Z,22.17
2023-05-20T16:18:43.373Z,22.07
2023-05-20T16:21:55.872Z,22.12
2023-05-20T16:25:11.027Z,22.05
2023-05-20T16:28:23.957Z,21.97
2023-05-20T16:31:36.454Z,21.85
2023-05-20T16:34:49.246Z,21.78
2023-05-20T16:38:01.822Z,21.73
2023-05-20T16:41:17.155Z,21.67
2023-05-20T16:44:29.657Z,21.58
2023-05-20T16:47:42.284Z,21.53
2023-05-20T16:50:54.946Z,21.45
2023-05-20T16:54:08.538Z,21.37
2023-05-20T16:57:21.352Z,21.30
2023-05-20T17:00:34.989Z,21.19
2023-05-20T17:03:47.947Z,21.12
2023-05-20T17:07:01.877Z,21.05
2023-05-20T17:10:16.328Z,20.99
2023-05-20T17:13:28.852Z,20.84
2023-05-20T17:16:41.806Z,20.81
2023-05-20T17:19:55.100Z,20.72
2023-05-20T17:23:07.851Z,20.66
2023-05-20T17:26:20.801Z,20.59
2023-05-20T17:29:33.565Z,20.54
2023-05-20T17:32:46.268Z,20.47
2023-05-20T17:35:58.918Z,20.42
2023-05-20T17:39:11.715Z,20.32
2023-05-20T17:42:24.396Z,20.27
2023-05-20T17:45:36.922Z,20.15
2023-05-20T17:48:49.509Z,20.11
2023-05-20T17:52:02.223Z,20.02
2023-05-20T17:55:15.696Z,19.94
2023-05-20T17:58:28.626Z,19.87
2023-05-20T18:01:41.964Z,19.80
2023-05-20T18:04:54.697Z,19.68
2023-05-20T18:08:07.277Z,19.61
2023-05-20T18:11:22.009Z,19.52
2023-05-20T18:14:34.499Z,19.40
2023-05-20T18:17:47.060Z,19.30
2023-05-20T18:20:59.828Z,19.23
2023-05-20T18:24:15.001Z,19.14
2023-05-20T18:27:27.698Z,19.04
2023-05-20T18:30:40.964Z,18.94
2023-05-20T18:33:53.660Z,18.87
2023-05-20T18:37:06.428Z,18.74
2023-05-20T18:40:20.844Z,18.66
2023-05-20T18:43:33.405Z,18.61
2023-05-20T18:46:46.332Z,18.52
2023-05-20T18:50:01.883Z,18.46
2023-05-20T18:53:14.393Z,18.34
2023-05-20T18:56:27.144Z,18.26
2023-05-20T18:59:39.848Z,18.18
2023-05-20T19:02:52.471Z,18.05
2023-05-20T19:06:05.459Z,17.98
2023-05-20T19:09:18.108Z,17.91
2023-05-20T19:12:31.048Z,17.80
2023-05-20T19:15:43.505Z,17.73
2023-05-20T19:18:56.230Z,17.65
2023-05-20T19:22:09.360Z,17.57
2023-05-20T19:25:22.323Z,17.49
2023-05-20T19:28:35.008Z,17.44
2023-05-20T19:31:47.608Z,17.39
2023-05-20T19:35:00.226Z,17.34
2023-05-20T19:38:12.802Z,17.27
2023-05-20T19:41:26.355Z,17.17
2023-05-20T19:44:38.883Z,17.09
2023-05-20T19:47:54.838Z,16.96
2023-05-20T19:51:08.079Z,16.88
2023-05-20T19:54:21.239Z,16.90
2023-05-20T19:57:33.967Z,16.93
2023-05-20T20:00:46.644Z,16.94
2023-05-20T20:03:59.033Z,16.96
2023-05-20T20:07:12.130Z,16.95
2023-05-20T20:10:24.859Z,16.88
2023-05-20T20:13:37.405Z,16.83
2023-05-20T20:16:50.510Z,16.76
2023-05-20T20:20:03.712Z,16.72
2023-05-20T20:23:16.577Z,16.62
2023-05-20T20:26:30.918Z,16.48
2023-05-20T20:29:43.520Z,16.38
2023-05-20T20:32:56.182Z,16.34
2023-05-20T20:36:09.188Z,16.31
2023-05-20T20:39:25.290Z,16.27
2023-05-20T20:42:38.857Z,16.23
2023-05-20T20:45:53.368Z,16.12
2023-05-20T20:49:06.200Z,16.07
2023-05-20T20:52:19.124Z,15.95
2023-05-20T20:55:31.625Z,15.90
2023-05-20T20:58:45.173Z,15.80
2023-05-20T21:01:57.988Z,15.69
2023-05-20T21:05:11.340Z,15.59
2023-05-20T21:08:25.867Z,15.51
2023-05-20T21:11:41.345Z,15.51
2023-05-20T21:14:53.957Z,15.51
2023-05-20T21:18:06.764Z,15.45
2023-05-20T21:21:21.521Z,15.42
2023-05-20T21:24:34.104Z,15.37
2023-05-20T21:27:46.911Z,15.33
2023-05-20T21:30:59.428Z,15.25
2023-05-20T21:34:12.169Z,15.20
2023-05-20T21:37:24.733Z,15.07
2023-05-20T21:40:37.353Z,15.00
2023-05-20T21:43:49.891Z,14.90
2023-05-20T21:47:02.452Z,14.88
2023-05-20T21:50:17.808Z,14.78
2023-05-20T21:53:30.255Z,14.80
2023-05-20T21:56:43.305Z,14.75
2023-05-20T21:59:57.261Z,14.73
2023-05-20T22:03:09.850Z,14.66
2023-05-20T22:06:22.581Z,14.70
2023-05-20T22:09:35.427Z,14.64
2023-05-20T22:12:48.049Z,14.61
2023-05-20T22:16:01.686Z,14.56
2023-05-20T22:19:15.345Z,14.53
2023-05-20T22:22:27.974Z,14.53
2023-05-20T22:25:40.551Z,14.48
2023-05-20T22:28:53.367Z,14.41
2023-05-20T22:32:05.979Z,14.36
2023-05-20T22:35:19.294Z,14.37
2023-05-20T22:38:31.929Z,14.31
2023-05-20T22:41:44.438Z,14.34
2023-05-20T22:44:56.936Z,14.32
2023-05-20T22:48:10.056Z,14.33
2023-05-20T22:51:22.622Z,14.37
2023-05-20T22:54:35.165Z,14.42
2023-05-20T22:57:47.678Z,14.38
2023-05-20T23:01:00.498Z,14.43
2023-05-20T23:04:13.698Z,14.38
2023-05-20T23:07:29.711Z,14.34
2023-05-20T23:10:42.105Z,14.29
2023-05-20T23:13:54.476Z,14.20
2023-05-20T23:17:07.085Z,14.16
2023-05-20T23:20:22.515Z,14.25
2023-05-20T23:23:35.045Z,14.29
2023-05-20T23:26:47.385Z,14.32
2023-05-20T23:30:00.163Z,14.29
2023-05-20T23:33:13.287Z,14.28
2023-05-20T23:36:25.855Z,14.24
2023-05-20T23:39:38.177Z,14.17
2023-05-20T23:42:51.117Z,14.19
2023-05-20T23:46:03.747Z,14.12
2023-05-20T23:49:18.251Z,14.16
2023-05-20T23:52:31.034Z,14.08
2023-05-20T23:55:45.460Z,14.06
2023-05-20T23:58:58.107Z,14.03
